Time;durP1;ratioP1;P1;durP2;ratioP2;P2;SDS_P1;SDS_P2;PMS_P1;PMS_P2;Temp;Humidity;BMP_temperature;BMP_pressure;BME280_temperature;BME280_humidity;BME280_pressure;Samples;Min_cycle;Max_cycle;Signal;HPM_P1;HPM_P2
2022/06/23 00:02:02;;;;;;;0.30;0.30;;;11.00;99.90;;;;;;5115159;28;20087;-75
2022/06/23 00:04:32;;;;;;;1.48;0.73;;;11.00;99.90;;;;;;5115154;28;20400;-75
2022/06/23 00:07:05;;;;;;;0.00;0.00;;;11.00;99.90;;;;;;5117866;28;20042;-74
2022/06/23 00:09:45;;;;;;;0.88;0.43;;;11.00;99.90;;;;;;5119076;28;20043;-74
2022/06/23 00:12:36;;;;;;;0.85;0.82;;;11.00;99.90;;;;;;5119043;28;20134;-75
2022/06/23 00:15:01;;;;;;;0.00;0.00;;;10.90;99.90;;;;;;5119374;28;20071;-75
2022/06/23 00:17:53;;;;;;;0.13;0.13;;;11.40;99.90;;;;;;5120063;28;20082;-75
2022/06/23 00:20:27;;;;;;;0.25;0.25;;;10.90;99.90;;;;;;5119110;28;20075;-75
2022/06/23 00:23:10;;;;;;;0.00;0.00;;;10.80;99.90;;;;;;5118854;28;20039;-75
2022/06/23 00:25:56;;;;;;;2.05;1.15;;;10.70;99.90;;;;;;5118976;28;20049;-74
2022/06/23 00:28:42;;;;;;;0.00;0.00;;;10.60;99.90;;;;;;5100536;28;20051;-74
2022/06/23 00:31:42;;;;;;;0.45;0.35;;;10.60;99.90;;;;;;5100152;28;20126;-75
2022/06/23 00:34:20;;;;;;;0.20;0.20;;;10.60;99.90;;;;;;5118038;28;20455;-75
2022/06/23 00:36:59;;;;;;;2.85;1.17;;;10.60;99.90;;;;;;5101252;28;20058;-75
2022/06/23 00:39:37;;;;;;;0.30;0.30;;;10.70;99.90;;;;;;5119238;28;20044;-78
2022/06/23 00:42:05;;;;;;;0.22;0.22;;;10.70;99.90;;;;;;5118674;28;20040;-75
2022/06/23 00:44:43;;;;;;;0.30;0.30;;;10.70;99.90;;;;;;5118839;28;20032;-75
2022/06/23 00:47:30;;;;;;;0.22;0.15;;;10.60;99.90;;;;;;5101324;28;20048;-75
2022/06/23 00:50:10;;;;;;;0.52;0.40;;;10.60;99.90;;;;;;5100080;28;20108;-75
2022/06/23 00:52:45;;;;;;;0.57;0.35;;;10.50;99.90;;;;;;5118590;28;20059;-74
2022/06/23 00:55:34;;;;;;;2.15;0.88;;;10.40;99.90;;;;;;5119059;28;20043;-76
2022/06/23 00:58:16;;;;;;;0.82;0.70;;;10.40;99.90;;;;;;5118671;28;20458;-74
2022/06/23 01:00:43;;;;;;;1.70;0.82;;;10.40;99.90;;;;;;5118358;28;20534;-75
2022/06/23 01:03:18;;;;;;;0.20;0.20;;;10.40;99.90;;;;;;5119427;28;20071;-74
2022/06/23 01:05:52;;;;;;;0.38;0.28;;;10.40;99.90;;;;;;5114075;28;20031;-75
2022/06/23 01:09:00;;;;;;;0.10;0.10;;;10.40;99.90;;;;;;5141363;28;20027;-77
2022/06/23 01:11:30;;;;;;;0.20;0.20;;;10.40;99.90;;;;;;5047516;28;20033;-77
2022/06/23 01:14:10;;;;;;;2.03;1.15;;;10.50;99.90;;;;;;5126557;28;20107;-75
2022/06/23 01:16:44;;;;;;;0.75;0.75;;;10.50;99.90;;;;;;5141190;28;20019;-76
2022/06/23 01:19:37;;;;;;;1.48;1.38;;;10.50;99.90;;;;;;5122843;28;20042;-76
2022/06/23 01:22:07;;;;;;;0.10;0.10;;;10.50;99.90;;;;;;5140869;28;20044;-77
2022/06/23 01:24:54;;;;;;;0.68;0.68;;;10.50;99.90;;;;;;5141192;28;20047;-77
2022/06/23 01:27:30;;;;;;;0.45;0.38;;;10.50;99.90;;;;;;5140996;28;20049;-75
2022/06/23 01:30:04;;;;;;;1.65;0.95;;;10.50;99.90;;;;;;5121668;28;20137;-75
2022/06/23 01:32:43;;;;;;;0.22;0.22;;;10.40;99.90;;;;;;5121505;28;20108;-74
2022/06/23 01:35:31;;;;;;;1.17;0.13;;;10.40;99.90;;;;;;5101364;28;20063;-74
2022/06/23 01:38:08;;;;;;;0.28;0.28;;;10.40;99.90;;;;;;5084205;28;20042;-77
2022/06/23 01:40:43;;;;;;;0.52;0.52;;;10.40;99.90;;;;;;5079880;28;20076;-75
2022/06/23 01:43:15;;;;;;;0.13;0.13;;;10.40;99.90;;;;;;5115225;28;20046;-74
2022/06/23 01:45:53;;;;;;;1.00;0.82;;;10.30;99.90;;;;;;5117041;28;20373;-74
2022/06/23 01:48:53;;;;;;;2.33;0.70;;;10.40;99.90;;;;;;5120726;28;20043;-75
2022/06/23 01:51:35;;;;;;;0.98;0.55;;;10.40;99.90;;;;;;5101647;28;20050;-74
2022/06/23 01:54:09;;;;;;;0.73;0.50;;;10.30;99.90;;;;;;5097524;28;20405;-74
2022/06/23 01:57:00;;;;;;;0.40;0.40;;;9.70;99.90;;;;;;5148110;22;20048;-73
2022/06/23 01:59:45;;;;;;;3.33;0.65;;;10.30;99.90;;;;;;5114073;28;20043;-73
2022/06/23 02:02:10;;;;;;;1.17;0.70;;;10.30;99.90;;;;;;5097428;28;20406;-73
2022/06/23 02:05:11;;;;;;;2.38;1.63;;;10.30;99.90;;;;;;5094490;28;20044;-73
2022/06/23 02:07:39;;;;;;;0.38;0.38;;;10.20;99.90;;;;;;5094685;28;20050;-73
2022/06/23 02:10:31;;;;;;;0.43;0.43;;;10.30;99.90;;;;;;5111825;28;20040;-73
2022/06/23 02:13:04;;;;;;;0.30;0.25;;;10.30;99.90;;;;;;5114058;28;20039;-73
2022/06/23 02:15:56;;;;;;;0.75;0.73;;;10.30;99.90;;;;;;5114633;28;20114;-73
2022/06/23 02:18:43;;;;;;;3.88;1.85;;;10.30;99.90;;;;;;5114477;28;20164;-73
2022/06/23 02:21:24;;;;;;;0.77;0.65;;;10.30;99.90;;;;;;5114608;28;20050;-73
2022/06/23 02:24:12;;;;;;;2.03;0.77;;;10.30;99.90;;;;;;5097463;28;20044;-73
2022/06/23 02:27:01;;;;;;;1.10;1.00;;;10.30;99.90;;;;;;5094226;28;20048;-74
2022/06/23 02:29:29;;;;;;;0.00;0.00;;;10.30;99.90;;;;;;5103072;28;20062;-73
2022/06/23 02:32:21;;;;;;;8.20;1.95;;;10.30;99.90;;;;;;5097904;28;20044;-73
2022/06/23 02:34:56;;;;;;;0.28;0.28;;;10.30;99.90;;;;;;5093765;28;20036;-72
2022/06/23 02:37:43;;;;;;;0.88;0.82;;;10.30;99.90;;;;;;5093992;28;20048;-73
2022/06/23 02:40:21;;;;;;;0.52;0.52;;;10.30;99.90;;;;;;5093880;28;20044;-73
2022/06/23 02:42:54;;;;;;;0.88;0.57;;;10.40;99.90;;;;;;5100830;28;20097;-72
2022/06/23 02:45:38;;;;;;;0.98;0.80;;;10.50;99.90;;;;;;5114017;28;20040;-73
2022/06/23 02:48:47;;;;;;;2.50;1.60;;;10.50;99.90;;;;;;5114522;28;20055;-73
2022/06/23 02:51:56;;;;;;;2.60;1.10;;;10.50;99.90;;;;;;5113927;28;20501;-73
2022/06/23 02:54:49;;;;;;;1.65;0.47;;;10.60;99.90;;;;;;5093777;28;20044;-73
2022/06/23 02:57:32;;;;;;;0.70;0.65;;;10.60;99.90;;;;;;5093652;28;20052;-73
2022/06/23 03:00:27;;;;;;;1.27;0.80;;;10.60;99.90;;;;;;5093303;28;20032;-73
2022/06/23 03:03:01;;;;;;;1.20;1.10;;;10.70;99.90;;;;;;5101340;28;20051;-73
2022/06/23 03:05:29;;;;;;;1.65;0.63;;;10.70;99.90;;;;;;5095435;28;20048;-73
2022/06/23 03:08:23;;;;;;;0.70;0.43;;;10.80;99.90;;;;;;5113606;28;20051;-73
2022/06/23 03:11:03;;;;;;;1.90;1.08;;;10.90;99.90;;;;;;5113759;28;20065;-73
2022/06/23 03:13:33;;;;;;;0.43;0.40;;;10.80;99.90;;;;;;5113418;28;20066;-73
2022/06/23 03:16:08;;;;;;;0.57;0.47;;;10.70;99.90;;;;;;5113338;28;20440;-73
2022/06/23 03:18:55;;;;;;;3.22;1.35;;;10.60;99.90;;;;;;5113551;28;20048;-73
2022/06/23 03:21:23;;;;;;;;;;;10.50;99.90;;;;;;5113948;28;20120;-73
2022/06/23 03:24:12;;;;;;;1.90;0.25;;;10.40;99.90;;;;;;5113156;28;20010;-73
2022/06/23 03:26:58;;;;;;;0.80;0.32;;;10.30;99.90;;;;;;5113245;28;20039;-73
2022/06/23 03:29:31;;;;;;;0.77;0.77;;;10.30;99.90;;;;;;5113533;28;20065;-73
2022/06/23 03:32:03;;;;;;;0.28;0.28;;;10.30;99.90;;;;;;5113374;28;20118;-73
2022/06/23 03:34:38;;;;;;;0.90;0.52;;;10.20;99.90;;;;;;5113130;28;20405;-73
2022/06/23 03:37:12;;;;;;;1.45;1.00;;;10.20;99.90;;;;;;5113200;28;20062;-73
2022/06/23 03:42:46;;;;;;;1.38;0.90;;;10.20;99.90;;;;;;5112968;28;20123;-72
2022/06/23 03:45:35;;;;;;;0.93;0.93;;;10.30;99.90;;;;;;5113208;28;20116;-73
2022/06/23 03:48:24;;;;;;;0.80;0.50;;;10.40;99.90;;;;;;5113400;28;20093;-73
2022/06/23 03:51:09;;;;;;;0.55;0.55;;;10.40;99.90;;;;;;5113095;28;20048;-73
2022/06/23 03:54:06;;;;;;;1.95;1.30;;;10.50;99.90;;;;;;5112910;28;20046;-73
2022/06/23 03:56:43;;;;;;;0.10;0.10;;;10.50;99.90;;;;;;5113013;28;20122;-73
2022/06/23 03:59:28;;;;;;;0.22;0.22;;;10.60;99.90;;;;;;5113171;28;20123;-73
2022/06/23 04:02:02;;;;;;;3.20;2.10;;;10.60;99.90;;;;;;5094555;28;20051;-74
2022/06/23 04:04:51;;;;;;;0.63;0.63;;;10.70;99.90;;;;;;5112575;28;20040;-73
2022/06/23 04:07:29;;;;;;;12.02;1.85;;;10.70;99.90;;;;;;5112378;28;20160;-74
2022/06/23 04:10:06;;;;;;;0.55;0.50;;;10.70;99.90;;;;;;5100316;28;20048;-74
2022/06/23 04:12:34;;;;;;;2.03;1.45;;;10.90;99.90;;;;;;5098148;28;20040;-73
2022/06/23 04:15:09;;;;;;;0.40;0.35;;;11.00;99.90;;;;;;5112501;28;20260;-74
2022/06/23 04:17:39;;;;;;;3.67;1.23;;;11.10;99.90;;;;;;5113005;28;20051;-74
2022/06/23 04:20:16;;;;;;;0.30;0.30;;;11.10;99.90;;;;;;5112802;28;20499;-73
2022/06/23 04:22:57;;;;;;;2.45;1.13;;;11.20;99.90;;;;;;5112438;28;20505;-73
2022/06/23 04:25:34;;;;;;;1.27;0.88;;;11.30;99.90;;;;;;5112740;28;20114;-74
2022/06/23 04:28:01;;;;;;;1.00;1.00;;;11.50;99.90;;;;;;5112869;28;20048;-73
2022/06/23 04:30:27;;;;;;;2.67;1.80;;;11.60;99.90;;;;;;5112667;28;20142;-74
2022/06/23 04:32:55;;;;;;;2.67;1.38;;;11.70;99.90;;;;;;5112449;28;20578;-74
2022/06/23 04:35:29;;;;;;;4.95;2.33;;;12.10;99.90;;;;;;5112593;28;20051;-74
2022/06/23 04:38:13;;;;;;;0.50;0.45;;;12.30;99.90;;;;;;5112645;28;20047;-74
2022/06/23 04:40:42;;;;;;;2.75;1.13;;;12.10;99.90;;;;;;5112842;28;20050;-74
2022/06/23 04:43:33;;;;;;;0.40;0.40;;;12.10;99.90;;;;;;5112343;28;20067;-74
2022/06/23 04:46:26;;;;;;;1.55;1.17;;;12.10;99.90;;;;;;5112446;28;20054;-74
2022/06/23 04:48:58;;;;;;;1.75;0.95;;;12.10;99.90;;;;;;5094455;28;20056;-74
2022/06/23 04:51:33;;;;;;;0.43;0.38;;;12.10;99.90;;;;;;5112511;28;20083;-74
2022/06/23 04:54:05;;;;;;;13.65;2.47;;;12.40;99.90;;;;;;5111674;28;20493;-74
2022/06/23 04:56:39;;;;;;;1.35;0.60;;;13.20;99.90;;;;;;5112817;28;20070;-74
2022/06/23 04:59:33;;;;;;;1.33;0.70;;;13.70;99.90;;;;;;5098498;28;21596;-74
2022/06/23 05:02:10;;;;;;;0.32;0.32;;;13.90;99.90;;;;;;5104600;28;20052;-74
2022/06/23 05:04:42;;;;;;;0.10;0.10;;;14.80;99.90;;;;;;5112730;28;20406;-74
2022/06/23 05:07:25;;;;;;;1.27;0.90;;;15.10;99.90;;;;;;5112834;28;20130;-74
2022/06/23 05:09:57;;;;;;;1.15;0.85;;;15.40;99.90;;;;;;5113179;28;20051;-75
2022/06/23 05:12:36;;;;;;;2.85;1.45;;;16.00;99.90;;;;;;5094172;28;20086;-74
2022/06/23 05:15:28;;;;;;;2.72;1.33;;;16.30;99.90;;;;;;5104231;28;20036;-73
2022/06/23 05:18:01;;;;;;;0.47;0.30;;;16.70;99.90;;;;;;5111429;28;20624;-74
2022/06/23 05:20:44;;;;;;;1.45;1.25;;;17.40;99.90;;;;;;5096711;28;20035;-75
2022/06/23 05:23:30;;;;;;;2.10;1.20;;;17.50;99.90;;;;;;5109826;28;20047;-74
2022/06/23 05:26:04;;;;;;;1.92;1.20;;;17.90;99.90;;;;;;5113832;28;20079;-74
2022/06/23 05:28:33;;;;;;;1.20;0.73;;;18.40;99.90;;;;;;5109995;28;20047;-75
2022/06/23 05:31:03;;;;;;;1.38;0.80;;;18.30;99.90;;;;;;5115004;28;20043;-74
2022/06/23 05:33:42;;;;;;;1.58;0.45;;;18.70;99.90;;;;;;5114686;28;20119;-74
2022/06/23 05:36:19;;;;;;;1.20;0.98;;;18.80;99.90;;;;;;5114929;28;20039;-74
2022/06/23 05:38:57;;;;;;;1.92;0.98;;;18.50;99.90;;;;;;5096795;28;20102;-74
2022/06/23 05:41:34;;;;;;;0.30;0.30;;;18.40;99.90;;;;;;5094837;28;20058;-74
2022/06/23 05:44:04;;;;;;;1.40;1.00;;;18.90;99.90;;;;;;5094787;28;20036;-74
2022/06/23 05:46:33;;;;;;;0.82;0.52;;;18.90;99.90;;;;;;5075118;28;20055;-75
2022/06/23 05:49:10;;;;;;;3.05;1.48;;;19.30;99.90;;;;;;5093941;28;20133;-74
2022/06/23 05:51:40;;;;;;;0.63;0.55;;;19.20;99.90;;;;;;5107439;28;20043;-74
2022/06/23 05:54:18;;;;;;;0.52;0.43;;;19.00;99.90;;;;;;5114153;28;20039;-74
2022/06/23 05:56:51;;;;;;;1.17;0.77;;;19.20;99.90;;;;;;5113792;28;20070;-75
2022/06/23 05:59:47;;;;;;;0.40;0.40;;;19.30;99.90;;;;;;5115228;28;20092;-74
2022/06/23 06:02:19;;;;;;;0.47;0.47;;;19.40;99.90;;;;;;5096825;28;20043;-74
2022/06/23 06:04:54;;;;;;;1.48;1.13;;;20.10;99.90;;;;;;5114659;28;20061;-74
2022/06/23 06:07:24;;;;;;;2.90;1.50;;;20.60;99.90;;;;;;5114794;28;20047;-74
2022/06/23 06:09:50;;;;;;;1.25;0.55;;;20.70;99.90;;;;;;5115115;28;20086;-75
2022/06/23 06:12:24;;;;;;;1.13;0.70;;;21.40;99.90;;;;;;5115086;28;20509;-74
2022/06/23 06:15:20;;;;;;;0.40;0.40;;;21.30;99.90;;;;;;5114678;28;20050;-74
2022/06/23 06:17:48;;;;;;;;;;;21.40;99.90;;;;;;5115157;28;20127;-74
2022/06/23 06:20:14;;;;;;;1.73;1.20;;;21.90;99.90;;;;;;5114671;28;19927;-74
2022/06/23 06:22:58;;;;;;;0.68;0.50;;;21.50;99.90;;;;;;5114832;28;20474;-74
2022/06/23 06:25:28;;;;;;;0.82;0.50;;;21.80;99.90;;;;;;5114723;28;20067;-74
2022/06/23 06:28:01;;;;;;;0.10;0.10;;;21.60;98.80;;;;;;5113396;28;20048;-74
2022/06/23 06:30:31;;;;;;;1.52;0.70;;;21.30;99.90;;;;;;5094014;28;20051;-75
2022/06/23 06:32:57;;;;;;;4.00;1.13;;;21.40;99.90;;;;;;5093748;28;20040;-75
2022/06/23 06:35:38;;;;;;;0.45;0.38;;;21.40;99.90;;;;;;5093456;28;20071;-75
2022/06/23 06:38:15;;;;;;;1.73;1.10;;;22.10;99.60;;;;;;5093623;28;20044;-75
2022/06/23 06:40:50;;;;;;;0.65;0.57;;;22.50;95.30;;;;;;5093333;28;20056;-74
2022/06/23 06:43:20;;;;;;;0.63;0.55;;;22.80;95.30;;;;;;5093350;28;20509;-75
2022/06/23 06:45:47;;;;;;;0.80;0.32;;;22.90;80.50;;;;;;5093421;28;20482;-74
2022/06/23 06:48:19;;;;;;;0.85;0.52;;;22.70;85.80;;;;;;5093218;28;20055;-75
2022/06/23 06:50:47;;;;;;;3.55;1.45;;;22.50;90.50;;;;;;5093177;28;20179;-75
2022/06/23 06:54:10;;;;;;;1.10;0.57;;;22.50;83.80;;;;;;5093276;28;20048;-74
2022/06/23 06:56:55;;;;;;;0.20;0.20;;;22.90;88.70;;;;;;5014543;28;20586;-75
2022/06/23 06:59:50;;;;;;;1.90;0.77;;;23.10;82.70;;;;;;5093451;28;20398;-74
2022/06/23 07:02:34;;;;;;;0.50;0.50;;;22.60;83.20;;;;;;5084693;28;20052;-75
2022/06/23 07:05:28;;;;;;;3.40;1.25;;;23.10;76.40;;;;;;5093088;28;20427;-74
2022/06/23 07:08:03;;;;;;;2.83;0.95;;;23.70;80.80;;;;;;5093051;28;20119;-75
2022/06/23 07:10:41;;;;;;;0.25;0.25;;;24.40;73.20;;;;;;5093607;28;20052;-74
2022/06/23 07:13:18;;;;;;;0.73;0.65;;;24.80;58.20;;;;;;5093750;28;20097;-75
2022/06/23 07:15:58;;;;;;;0.40;0.35;;;24.80;42.40;;;;;;5092532;28;20069;-74
2022/06/23 07:18:55;;;;;;;7.45;1.35;;;24.80;49.40;;;;;;5093153;28;20131;-75
2022/06/23 07:21:24;;;;;;;0.38;0.38;;;23.60;65.90;;;;;;5092762;28;20040;-75
2022/06/23 07:23:53;;;;;;;0.20;0.15;;;23.90;63.70;;;;;;5092850;28;20074;-74
2022/06/23 07:26:43;;;;;;;0.20;0.20;;;24.30;66.20;;;;;;5093176;28;20079;-75
2022/06/23 07:29:22;;;;;;;0.38;0.38;;;25.70;55.80;;;;;;5093314;28;20051;-75
2022/06/23 07:31:54;;;;;;;0.13;0.13;;;25.90;42.00;;;;;;5093024;28;20044;-74
2022/06/23 07:34:25;;;;;;;0.88;0.68;;;26.00;26.90;;;;;;5093088;28;20402;-75
2022/06/23 07:36:57;;;;;;;0.80;0.77;;;26.70;20.20;;;;;;5092877;28;20044;-75
2022/06/23 07:39:32;;;;;;;3.78;0.57;;;27.00;17.50;;;;;;5093209;28;20036;-75
2022/06/23 07:42:05;;;;;;;1.02;0.75;;;26.90;17.80;;;;;;5093190;28;20070;-75
2022/06/23 07:44:35;;;;;;;4.28;1.38;;;25.70;28.40;;;;;;5074724;28;20401;-75
2022/06/23 07:47:01;;;;;;;0.70;0.52;;;26.20;26.50;;;;;;5092755;28;20035;-75
2022/06/23 07:49:27;;;;;;;0.88;0.77;;;26.70;24.80;;;;;;5093003;28;20166;-75
2022/06/23 07:51:55;;;;;;;0.82;0.73;;;26.90;22.50;;;;;;5092551;28;20085;-75
2022/06/23 07:54:22;;;;;;;1.27;1.08;;;27.40;16.20;;;;;;5092407;28;20482;-75
2022/06/23 07:56:50;;;;;;;2.15;0.70;;;26.80;14.20;;;;;;5091961;28;20525;-75
2022/06/23 07:59:18;;;;;;;2.03;0.80;;;27.10;13.60;;;;;;5092422;28;20041;-75
2022/06/23 08:01:47;;;;;;;2.17;0.85;;;27.40;12.90;;;;;;5074071;28;20044;-75
2022/06/23 08:04:12;;;;;;;1.10;0.52;;;27.40;12.80;;;;;;5092148;28;20490;-75
2022/06/23 08:06:38;;;;;;;3.58;1.00;;;28.10;14.50;;;;;;5092313;28;20046;-75
2022/06/23 08:09:19;;;;;;;2.38;0.95;;;28.70;4.30;;;;;;5092445;28;20051;-75
2022/06/23 08:14:33;;;;;;;1.40;0.60;;;28.30;1.00;;;;;;5092091;28;20047;-75
2022/06/23 08:17:04;;;;;;;0.50;0.50;;;28.30;1.00;;;;;;5092303;28;20102;-75
2022/06/23 08:19:38;;;;;;;0.20;0.20;;;28.20;2.30;;;;;;5074274;28;20048;-75
2022/06/23 08:22:07;;;;;;;0.63;0.63;;;27.30;1.00;;;;;;5092252;28;20044;-75
2022/06/23 08:24:36;;;;;;;1.27;0.77;;;27.90;1.00;;;;;;5091886;28;20044;-75
2022/06/23 08:27:06;;;;;;;0.63;0.45;;;27.70;1.30;;;;;;5091977;28;20052;-75
2022/06/23 08:29:58;;;;;;;3.33;0.75;;;27.70;2.00;;;;;;5095489;28;20036;-75
2022/06/23 08:32:24;;;;;;;0.30;0.20;;;27.40;1.80;;;;;;5095990;28;20040;-75
2022/06/23 08:34:54;;;;;;;1.05;0.70;;;28.30;1.00;;;;;;5077663;28;20044;-76
2022/06/23 08:37:23;;;;;;;1.25;0.85;;;28.00;1.00;;;;;;5095751;28;20128;-75
2022/06/23 08:40:21;;;;;;;0.15;0.15;;;28.10;1.00;;;;;;5096042;28;20040;-75
2022/06/23 08:43:04;;;;;;;0.00;0.00;;;27.80;1.00;;;;;;5061543;28;20048;-75
2022/06/23 08:45:40;;;;;;;0.65;0.57;;;28.80;1.00;;;;;;5095506;28;20436;-75
2022/06/23 08:48:23;;;;;;;0.68;0.38;;;28.90;1.00;;;;;;5095952;28;20047;-75
2022/06/23 08:51:15;;;;;;;1.13;0.90;;;29.50;1.00;;;;;;5095703;28;20552;-75
2022/06/23 08:54:19;;;;;;;0.93;0.77;;;29.60;1.00;;;;;;5052967;28;20060;-75
2022/06/23 08:56:54;;;;;;;0.52;0.45;;;29.90;1.00;;;;;;5032719;28;20104;-75
2022/06/23 08:59:36;;;;;;;0.50;0.50;;;29.90;1.00;;;;;;5033075;28;20431;-75
2022/06/23 09:02:20;;;;;;;2.80;0.85;;;30.60;1.00;;;;;;5072610;28;20052;-75
2022/06/23 09:05:03;;;;;;;2.40;0.32;;;30.50;1.00;;;;;;5095392;28;20058;-75
2022/06/23 09:07:45;;;;;;;0.10;0.10;;;30.60;1.00;;;;;;5095446;28;20052;-75
2022/06/23 09:10:23;;;;;;;1.00;0.75;;;30.20;1.00;;;;;;5095261;28;20040;-75
2022/06/23 09:13:15;;;;;;;0.50;0.47;;;30.10;1.00;;;;;;5095211;28;20040;-74
2022/06/23 09:16:13;;;;;;;0.88;0.40;;;30.10;1.00;;;;;;5094100;28;20048;-75
2022/06/23 09:19:16;;;;;;;0.25;0.20;;;30.20;1.00;;;;;;5095170;28;20426;-75
2022/06/23 09:21:50;;;;;;;0.28;0.20;;;30.80;1.00;;;;;;5032436;28;20053;-75
2022/06/23 09:24:32;;;;;;;0.80;0.75;;;31.00;1.00;;;;;;5085413;28;20133;-75
2022/06/23 09:27:10;;;;;;;1.67;0.30;;;31.20;1.00;;;;;;5077202;28;20521;-75
2022/06/23 09:29:55;;;;;;;0.77;0.55;;;32.10;1.00;;;;;;5094680;28;20048;-75
2022/06/23 09:32:24;;;;;;;0.32;0.05;;;32.10;1.00;;;;;;5094882;28;20506;-75
2022/06/23 09:35:05;;;;;;;0.65;0.47;;;31.00;1.00;;;;;;5094581;28;20406;-75
2022/06/23 09:37:39;;;;;;;2.38;0.65;;;31.80;1.00;;;;;;5088541;28;20075;-75
2022/06/23 09:40:23;;;;;;;1.83;0.68;;;31.50;1.00;;;;;;5114864;28;20100;-75
2022/06/23 09:43:14;;;;;;;4.30;0.90;;;30.80;1.00;;;;;;5115237;28;20054;-75
2022/06/23 09:46:00;;;;;;;0.20;0.20;;;30.40;1.00;;;;;;5114816;28;20039;-75
2022/06/23 09:48:40;;;;;;;0.10;0.10;;;30.80;1.00;;;;;;5072896;28;20073;-75
2022/06/23 09:51:06;;;;;;;0.85;0.70;;;30.20;1.00;;;;;;5114992;28;20118;-76
2022/06/23 09:54:18;;;;;;;0.38;0.20;;;30.70;1.00;;;;;;5114976;28;20123;-75
2022/06/23 09:56:52;;;;;;;0.88;0.82;;;31.10;1.00;;;;;;5077695;28;20421;-75
2022/06/23 09:59:18;;;;;;;0.55;0.55;;;30.50;1.00;;;;;;5115073;28;20055;-75
2022/06/23 10:02:15;;;;;;;0.22;0.22;;;29.90;1.00;;;;;;5114707;28;20342;-75
2022/06/23 10:04:47;;;;;;;0.00;0.00;;;29.60;1.00;;;;;;5114474;28;20044;-75
2022/06/23 10:07:31;;;;;;;0.28;0.25;;;29.10;1.00;;;;;;5115058;28;20055;-75
2022/06/23 10:10:10;;;;;;;0.45;0.43;;;29.20;1.00;;;;;;5114943;28;20383;-75
2022/06/23 10:12:53;;;;;;;0.10;0.10;;;29.50;1.00;;;;;;5114694;28;20044;-75
2022/06/23 10:15:27;;;;;;;0.93;0.38;;;29.20;1.00;;;;;;5114344;28;20552;-75
2022/06/23 10:18:08;;;;;;;0.32;0.30;;;29.30;1.00;;;;;;5114630;28;20043;-76
2022/06/23 10:21:02;;;;;;;0.10;0.10;;;29.30;1.00;;;;;;5114033;28;20443;-75
2022/06/23 10:23:51;;;;;;;2.05;0.38;;;29.70;1.00;;;;;;5114295;28;20043;-75
2022/06/23 10:26:43;;;;;;;0.70;0.40;;;28.70;1.00;;;;;;5114430;28;20039;-75
2022/06/23 10:29:09;;;;;;;0.38;0.25;;;28.20;1.00;;;;;;5114269;28;20043;-75
2022/06/23 10:31:46;;;;;;;2.30;1.17;;;28.50;1.00;;;;;;5114683;28;20489;-75
2022/06/23 10:34:43;;;;;;;2.72;0.90;;;28.60;1.00;;;;;;5096246;28;20043;-74
2022/06/23 10:37:31;;;;;;;0.88;0.35;;;28.30;1.00;;;;;;5115819;28;20047;-75
2022/06/23 10:40:39;;;;;;;0.52;0.35;;;28.60;1.00;;;;;;5097470;28;20051;-74
2022/06/23 10:43:24;;;;;;;0.60;0.50;;;28.60;1.00;;;;;;5080389;28;20118;-76
2022/06/23 10:45:58;;;;;;;0.40;0.28;;;29.10;1.00;;;;;;5115571;28;20143;-75
2022/06/23 10:48:41;;;;;;;6.32;0.80;;;29.80;1.00;;;;;;5115480;28;20035;-75
2022/06/23 10:51:32;;;;;;;1.25;0.55;;;30.10;1.00;;;;;;5114646;28;20051;-75
2022/06/23 10:54:14;;;;;;;1.88;0.85;;;30.40;1.00;;;;;;5097085;28;20493;-75
2022/06/23 10:57:05;;;;;;;0.20;0.20;;;30.30;1.00;;;;;;5115400;28;20051;-76
2022/06/23 10:59:45;;;;;;;1.17;0.80;;;30.50;1.00;;;;;;5115337;28;20070;-75
2022/06/23 11:02:42;;;;;;;0.32;0.25;;;30.30;1.00;;;;;;5114821;28;20040;-75
2022/06/23 11:05:13;;;;;;;4.40;0.35;;;30.60;1.00;;;;;;5115309;28;20043;-75
2022/06/23 11:07:57;;;;;;;0.10;0.10;;;30.30;1.00;;;;;;5115044;28;20043;-74
2022/06/23 11:10:49;;;;;;;3.10;1.38;;;31.00;1.00;;;;;;5115314;28;20459;-75
2022/06/23 11:13:44;;;;;;;0.30;0.30;;;31.50;1.00;;;;;;5115063;28;20046;-74
2022/06/23 11:16:32;;;;;;;0.70;0.45;;;31.60;1.00;;;;;;5115341;28;20044;-75
2022/06/23 11:19:10;;;;;;;0.20;0.10;;;31.10;1.00;;;;;;5075245;28;20512;-74
2022/06/23 11:21:59;;;;;;;0.45;0.28;;;31.00;1.00;;;;;;5096912;28;20130;-75
2022/06/23 11:24:49;;;;;;;0.00;0.00;;;31.60;1.00;;;;;;5115558;28;20048;-75
2022/06/23 11:27:32;;;;;;;0.65;0.32;;;32.00;1.00;;;;;;5096318;28;20055;-75
2022/06/23 11:30:09;;;;;;;0.40;0.32;;;32.60;1.00;;;;;;5093692;28;20490;-75
2022/06/23 11:32:53;;;;;;;0.15;0.15;;;32.40;1.00;;;;;;5076320;28;20439;-74
2022/06/23 11:35:33;;;;;;;0.00;0.00;;;32.90;1.00;;;;;;5093683;28;20048;-75
2022/06/23 11:38:10;;;;;;;2.05;0.38;;;33.10;1.00;;;;;;5093383;28;20040;-75
2022/06/23 11:40:55;;;;;;;1.20;0.30;;;33.70;1.00;;;;;;5093042;28;20040;-74
2022/06/23 11:43:38;;;;;;;0.13;0.13;;;34.00;1.00;;;;;;5093742;28;20044;-74
2022/06/23 11:46:41;;;;;;;0.55;0.43;;;34.60;1.00;;;;;;5093857;28;20089;-74
2022/06/23 11:49:09;;;;;;;0.60;0.30;;;34.60;1.00;;;;;;5093885;28;20048;-74
2022/06/23 11:52:04;;;;;;;1.33;0.40;;;34.70;1.00;;;;;;5076046;28;20474;-75
2022/06/23 11:54:54;;;;;;;0.08;0.08;;;35.20;1.00;;;;;;5077303;28;20518;-75
2022/06/23 11:57:28;;;;;;;0.98;0.73;;;35.20;1.00;;;;;;5093337;28;20106;-75
2022/06/23 12:00:08;;;;;;;0.00;0.00;;;34.10;1.00;;;;;;5092315;28;20504;-75
2022/06/23 12:03:09;;;;;;;0.30;0.13;;;34.50;1.00;;;;;;5094824;28;20047;-74
2022/06/23 12:05:43;;;;;;;0.10;0.10;;;33.90;1.00;;;;;;5081112;28;20040;-75
2022/06/23 12:08:31;;;;;;;;;;;34.70;1.00;;;;;;5097410;28;20080;-75
2022/06/23 12:10:56;;;;;;;0.00;0.00;;;34.90;1.00;;;;;;5096795;28;19926;-74
2022/06/23 12:13:26;;;;;;;0.20;0.10;;;35.00;1.00;;;;;;5096303;28;20469;-75
2022/06/23 12:15:54;;;;;;;0.88;0.47;;;35.10;1.00;;;;;;5096276;28;20136;-75
2022/06/23 12:18:36;;;;;;;0.00;0.00;;;36.10;1.00;;;;;;5096308;28;20080;-75
2022/06/23 12:21:52;;;;;;;0.38;0.30;;;36.80;1.00;;;;;;5096495;28;20043;-74
2022/06/23 12:24:41;;;;;;;0.10;0.10;;;37.00;1.00;;;;;;5053596;28;20045;-75
2022/06/23 12:27:10;;;;;;;0.22;0.13;;;36.10;1.00;;;;;;5053855;28;20048;-74
2022/06/23 12:30:00;;;;;;;0.38;0.25;;;36.20;1.00;;;;;;5081079;28;20497;-74
2022/06/23 12:32:39;;;;;;;0.85;0.38;;;35.70;1.00;;;;;;5096197;28;20036;-75
2022/06/23 12:35:26;;;;;;;0.30;0.20;;;36.90;1.00;;;;;;5077720;28;20058;-74
2022/06/23 12:38:06;;;;;;;1.05;0.25;;;37.00;1.00;;;;;;5078218;28;20051;-75
2022/06/23 12:40:46;;;;;;;0.80;0.57;;;37.30;1.00;;;;;;5096136;28;20040;-75
2022/06/23 12:43:36;;;;;;;0.30;0.30;;;35.80;1.00;;;;;;5095867;28;20072;-74
2022/06/23 12:46:32;;;;;;;0.68;0.40;;;35.00;1.00;;;;;;5077579;28;20084;-75
2022/06/23 12:49:25;;;;;;;0.20;0.17;;;35.50;1.00;;;;;;5096025;28;20052;-75
2022/06/23 12:52:10;;;;;;;0.65;0.65;;;36.80;1.00;;;;;;5095889;28;20071;-75
2022/06/23 12:55:03;;;;;;;0.00;0.00;;;37.20;1.00;;;;;;5095354;28;20129;-74
2022/06/23 12:57:32;;;;;;;0.98;0.63;;;35.50;1.00;;;;;;5095540;28;20070;-75
2022/06/23 13:00:12;;;;;;;0.55;0.22;;;35.50;1.00;;;;;;5095310;28;20044;-74
2022/06/23 13:02:40;;;;;;;0.30;0.30;;;35.80;1.00;;;;;;5095749;28;20047;-75
2022/06/23 13:05:14;;;;;;;0.00;0.00;;;37.00;1.00;;;;;;5095370;28;20040;-75
2022/06/23 13:07:54;;;;;;;0.85;0.43;;;37.80;1.00;;;;;;5095655;28;20048;-75
2022/06/23 13:10:25;;;;;;;0.25;0.13;;;36.50;1.00;;;;;;5095402;28;20136;-74
2022/06/23 13:12:56;;;;;;;0.47;0.32;;;37.40;1.00;;;;;;5095415;28;20044;-75
2022/06/23 13:15:44;;;;;;;0.00;0.00;;;36.20;1.00;;;;;;5094871;28;20059;-75
2022/06/23 13:18:29;;;;;;;0.55;0.25;;;36.50;1.00;;;;;;5095604;28;20043;-74
2022/06/23 13:21:17;;;;;;;0.80;0.43;;;37.70;1.00;;;;;;5095194;28;20036;-75
2022/06/23 13:24:01;;;;;;;0.10;0.10;;;37.00;1.00;;;;;;5087491;28;20048;-74
2022/06/23 13:26:35;;;;;;;0.63;0.15;;;37.60;1.00;;;;;;5095312;28;20143;-75
2022/06/23 13:29:16;;;;;;;0.20;0.20;;;36.80;1.00;;;;;;5095150;28;20040;-75
2022/06/23 13:32:03;;;;;;;0.17;0.13;;;36.20;1.00;;;;;;5095080;28;20092;-74
2022/06/23 13:34:32;;;;;;;0.25;0.15;;;36.10;1.00;;;;;;5095200;28;20071;-74
2022/06/23 13:37:09;;;;;;;0.22;0.22;;;36.00;1.00;;;;;;5094945;28;20040;-74
2022/06/23 13:39:50;;;;;;;0.13;0.03;;;35.90;1.00;;;;;;5094860;28;20090;-74
2022/06/23 13:42:27;;;;;;;0.05;0.05;;;35.80;1.00;;;;;;5095091;28;20048;-74
2022/06/23 13:45:09;;;;;;;0.45;0.20;;;35.40;1.00;;;;;;5076694;28;20394;-74
2022/06/23 13:48:07;;;;;;;0.10;0.10;;;35.90;1.00;;;;;;5094711;28;20516;-75
2022/06/23 13:50:51;;;;;;;0.10;0.10;;;36.00;1.00;;;;;;5071058;28;20556;-75
2022/06/23 13:53:34;;;;;;;0.32;0.30;;;36.10;1.00;;;;;;5094794;28;20127;-75
2022/06/23 13:56:35;;;;;;;0.00;0.00;;;36.70;1.00;;;;;;5094275;28;20040;-75
2022/06/23 13:59:07;;;;;;;0.17;0.10;;;37.50;1.00;;;;;;5094649;28;20128;-75
2022/06/23 14:01:59;;;;;;;0.55;0.32;;;37.10;1.00;;;;;;5094472;28;20059;-75
2022/06/23 14:04:52;;;;;;;0.28;0.20;;;36.80;1.00;;;;;;5094101;28;20478;-75
2022/06/23 14:07:33;;;;;;;0.75;0.55;;;36.80;1.00;;;;;;5094645;28;20069;-75